sensor_id;sensor_type;location;lat;lon;timestamp;P1;durP1;ratioP1;P2;durP2;ratioP2
1831;SDS011;1680;48.106;11.708;2023-05-10T00:02:20;1.73;;;1.30;;
1831;SDS011;1680;48.106;11.708;2023-05-10T00:04:47;1.47;;;1.10;;
1831;SDS011;1680;48.106;11.708;2023-05-10T00:07:15;2.00;;;1.30;;
1831;SDS011;1680;48.106;11.708;2023-05-10T00:09:42;1.50;;;1.40;;
1831;SDS011;1680;48.106;11.708;2023-05-10T00:12:09;1.67;;;1.57;;
1831;SDS011;1680;48.106;11.708;2023-05-10T00:14:37;1.87;;;1.20;;
1831;SDS011;1680;48.106;11.708;2023-05-10T00:17:04;4.63;;;1.73;;
1831;SDS011;1680;48.106;11.708;2023-05-10T00:19:33;1.90;;;1.60;;
1831;SDS011;1680;48.106;11.708;2023-05-10T00:22:00;1.63;;;1.53;;
1831;SDS011;1680;48.106;11.708;2023-05-10T00:24:28;1.40;;;1.30;;
1831;SDS011;1680;48.106;11.708;2023-05-10T00:26:55;1.40;;;1.30;;
1831;SDS011;1680;48.106;11.708;2023-05-10T00:29:22;1.60;;;1.20;;
1831;SDS011;1680;48.106;11.708;2023-05-10T00:31:49;1.50;;;1.30;;
1831;SDS011;1680;48.106;11.708;2023-05-10T00:34:17;1.10;;;1.00;;
1831;SDS011;1680;48.106;11.708;2023-05-10T00:36:45;1.40;;;1.23;;
1831;SDS011;1680;48.106;11.708;2023-05-10T00:39:12;1.30;;;1.20;;
1831;SDS011;1680;48.106;11.708;2023-05-10T00:41:39;1.43;;;1.33;;
1831;SDS011;1680;48.106;11.708;2023-05-10T00:44:07;1.50;;;1.40;;
1831;SDS011;1680;48.106;11.708;2023-05-10T00:46:34;1.70;;;1.03;;
1831;SDS011;1680;48.106;11.708;2023-05-10T00:49:01;1.40;;;1.30;;
1831;SDS011;1680;48.106;11.708;2023-05-10T00:51:29;1.30;;;1.20;;
1831;SDS011;1680;48.106;11.708;2023-05-10T00:53:58;1.37;;;1.27;;
1831;SDS011;1680;48.106;11.708;2023-05-10T00:56:25;1.90;;;1.23;;
1831;SDS011;1680;48.106;11.708;2023-05-10T00:58:54;1.20;;;1.10;;
1831;SDS011;1680;48.106;11.708;2023-05-10T01:01:22;3.60;;;1.27;;
1831;SDS011;1680;48.106;11.708;2023-05-10T01:03:50;0.93;;;0.90;;
1831;SDS011;1680;48.106;11.708;2023-05-10T01:06:17;2.73;;;1.40;;
1831;SDS011;1680;48.106;11.708;2023-05-10T01:08:44;2.00;;;1.10;;
1831;SDS011;1680;48.106;11.708;2023-05-10T01:11:13;1.10;;;1.00;;
1831;SDS011;1680;48.106;11.708;2023-05-10T01:13:42;1.30;;;1.20;;
1831;SDS011;1680;48.106;11.708;2023-05-10T01:16:14;1.20;;;1.10;;
1831;SDS011;1680;48.106;11.708;2023-05-10T01:18:41;2.27;;;1.20;;
1831;SDS011;1680;48.106;11.708;2023-05-10T01:21:14;3.23;;;1.00;;
1831;SDS011;1680;48.106;11.708;2023-05-10T01:23:53;1.10;;;1.00;;
1831;SDS011;1680;48.106;11.708;2023-05-10T01:29:51;1.40;;;1.30;;
1831;SDS011;1680;48.106;11.708;2023-05-10T01:32:52;1.53;;;1.10;;
1831;SDS011;1680;48.106;11.708;2023-05-10T01:35:26;1.73;;;1.20;;
1831;SDS011;1680;48.106;11.708;2023-05-10T01:37:59;1.17;;;1.00;;
1831;SDS011;1680;48.106;11.708;2023-05-10T01:40:35;1.10;;;1.00;;
1831;SDS011;1680;48.106;11.708;2023-05-10T01:43:11;1.20;;;1.10;;
1831;SDS011;1680;48.106;11.708;2023-05-10T01:45:47;1.50;;;1.10;;
1831;SDS011;1680;48.106;11.708;2023-05-10T01:48:25;1.03;;;1.03;;
1831;SDS011;1680;48.106;11.708;2023-05-10T01:50:54;1.10;;;1.00;;
1831;SDS011;1680;48.106;11.708;2023-05-10T01:53:24;1.50;;;1.10;;
1831;SDS011;1680;48.106;11.708;2023-05-10T01:55:52;1.07;;;1.00;;
1831;SDS011;1680;48.106;11.708;2023-05-10T01:58:23;2.03;;;1.10;;
1831;SDS011;1680;48.106;11.708;2023-05-10T02:00:54;1.10;;;0.97;;
1831;SDS011;1680;48.106;11.708;2023-05-10T02:03:23;1.17;;;1.07;;
1831;SDS011;1680;48.106;11.708;2023-05-10T02:05:54;1.40;;;1.10;;
1831;SDS011;1680;48.106;11.708;2023-05-10T02:08:22;1.50;;;1.00;;
1831;SDS011;1680;48.106;11.708;2023-05-10T02:10:52;1.57;;;1.00;;
1831;SDS011;1680;48.106;11.708;2023-05-10T02:13:23;1.00;;;0.90;;
1831;SDS011;1680;48.106;11.708;2023-05-10T02:15:51;2.60;;;1.00;;
1831;SDS011;1680;48.106;11.708;2023-05-10T02:18:19;4.30;;;1.40;;
1831;SDS011;1680;48.106;11.708;2023-05-10T02:20:50;2.20;;;1.10;;
1831;SDS011;1680;48.106;11.708;2023-05-10T02:23:20;1.33;;;0.90;;
1831;SDS011;1680;48.106;11.708;2023-05-10T02:25:49;1.20;;;1.10;;
1831;SDS011;1680;48.106;11.708;2023-05-10T02:28:18;1.87;;;1.20;;
1831;SDS011;1680;48.106;11.708;2023-05-10T02:30:47;1.10;;;1.00;;
1831;SDS011;1680;48.106;11.708;2023-05-10T02:33:15;1.00;;;1.00;;
1831;SDS011;1680;48.106;11.708;2023-05-10T02:35:43;1.33;;;1.23;;
1831;SDS011;1680;48.106;11.708;2023-05-10T02:38:12;0.87;;;0.87;;
1831;SDS011;1680;48.106;11.708;2023-05-10T02:40:41;1.17;;;0.90;;
1831;SDS011;1680;48.106;11.708;2023-05-10T02:43:11;1.13;;;1.00;;
1831;SDS011;1680;48.106;11.708;2023-05-10T02:45:41;0.90;;;0.90;;
1831;SDS011;1680;48.106;11.708;2023-05-10T02:48:13;1.17;;;1.07;;
1831;SDS011;1680;48.106;11.708;2023-05-10T02:50:41;3.03;;;1.00;;
1831;SDS011;1680;48.106;11.708;2023-05-10T02:53:15;1.73;;;1.10;;
1831;SDS011;1680;48.106;11.708;2023-05-10T02:55:45;0.87;;;0.87;;
1831;SDS011;1680;48.106;11.708;2023-05-10T02:58:18;2.00;;;1.00;;
1831;SDS011;1680;48.106;11.708;2023-05-10T03:00:46;1.23;;;1.13;;
1831;SDS011;1680;48.106;11.708;2023-05-10T03:03:13;0.83;;;0.83;;
1831;SDS011;1680;48.106;11.708;2023-05-10T03:05:40;1.90;;;1.10;;
1831;SDS011;1680;48.106;11.708;2023-05-10T03:08:08;2.47;;;1.10;;
1831;SDS011;1680;48.106;11.708;2023-05-10T03:10:39;1.43;;;0.97;;
1831;SDS011;1680;48.106;11.708;2023-05-10T03:13:16;1.17;;;1.00;;
1831;SDS011;1680;48.106;11.708;2023-05-10T03:15:57;1.70;;;1.10;;
1831;SDS011;1680;48.106;11.708;2023-05-10T03:18:33;1.07;;;1.07;;
1831;SDS011;1680;48.106;11.708;2023-05-10T03:21:10;1.73;;;1.10;;
1831;SDS011;1680;48.106;11.708;2023-05-10T03:23:40;0.90;;;0.90;;
1831;SDS011;1680;48.106;11.708;2023-05-10T03:26:12;1.80;;;1.17;;
1831;SDS011;1680;48.106;11.708;2023-05-10T03:28:45;1.07;;;0.97;;
1831;SDS011;1680;48.106;11.708;2023-05-10T03:31:14;0.90;;;0.90;;
1831;SDS011;1680;48.106;11.708;2023-05-10T03:33:48;1.10;;;1.00;;
1831;SDS011;1680;48.106;11.708;2023-05-10T03:36:16;0.80;;;0.80;;
1831;SDS011;1680;48.106;11.708;2023-05-10T03:38:43;1.00;;;0.90;;
1831;SDS011;1680;48.106;11.708;2023-05-10T03:41:11;0.97;;;0.97;;
1831;SDS011;1680;48.106;11.708;2023-05-10T03:43:39;2.07;;;0.70;;
1831;SDS011;1680;48.106;11.708;2023-05-10T03:46:07;0.87;;;0.70;;
1831;SDS011;1680;48.106;11.708;2023-05-10T03:48:34;1.03;;;0.87;;
1831;SDS011;1680;48.106;11.708;2023-05-10T03:51:01;1.10;;;1.00;;
1831;SDS011;1680;48.106;11.708;2023-05-10T03:53:28;1.30;;;0.90;;
1831;SDS011;1680;48.106;11.708;2023-05-10T03:55:55;1.23;;;1.07;;
1831;SDS011;1680;48.106;11.708;2023-05-10T03:58:24;0.90;;;0.90;;
1831;SDS011;1680;48.106;11.708;2023-05-10T04:00:51;1.10;;;0.80;;
1831;SDS011;1680;48.106;11.708;2023-05-10T04:03:18;0.93;;;0.80;;
1831;SDS011;1680;48.106;11.708;2023-05-10T04:05:46;0.80;;;0.80;;
1831;SDS011;1680;48.106;11.708;2023-05-10T04:08:13;1.37;;;0.80;;
1831;SDS011;1680;48.106;11.708;2023-05-10T04:10:41;0.70;;;0.70;;
1831;SDS011;1680;48.106;11.708;2023-05-10T04:13:08;2.67;;;0.77;;
1831;SDS011;1680;48.106;11.708;2023-05-10T04:15:37;0.80;;;0.80;;
1831;SDS011;1680;48.106;11.708;2023-05-10T04:18:05;0.80;;;0.80;;
1831;SDS011;1680;48.106;11.708;2023-05-10T04:20:32;0.80;;;0.80;;
1831;SDS011;1680;48.106;11.708;2023-05-10T04:22:59;0.70;;;0.70;;
1831;SDS011;1680;48.106;11.708;2023-05-10T04:25:26;1.10;;;0.80;;
1831;SDS011;1680;48.106;11.708;2023-05-10T04:27:54;0.70;;;0.70;;
1831;SDS011;1680;48.106;11.708;2023-05-10T04:30:21;0.60;;;0.60;;
1831;SDS011;1680;48.106;11.708;2023-05-10T04:32:49;1.17;;;0.70;;
1831;SDS011;1680;48.106;11.708;2023-05-10T04:35:17;0.90;;;0.70;;
1831;SDS011;1680;48.106;11.708;2023-05-10T04:37:44;2.37;;;0.70;;
1831;SDS011;1680;48.106;11.708;2023-05-10T04:40:11;0.83;;;0.80;;
1831;SDS011;1680;48.106;11.708;2023-05-10T04:42:39;1.10;;;0.60;;
1831;SDS011;1680;48.106;11.708;2023-05-10T04:45:07;0.93;;;0.73;;
1831;SDS011;1680;48.106;11.708;2023-05-10T04:47:35;0.70;;;0.60;;
1831;SDS011;1680;48.106;11.708;2023-05-10T04:50:05;0.70;;;0.70;;
1831;SDS011;1680;48.106;11.708;2023-05-10T04:52:33;0.80;;;0.67;;
1831;SDS011;1680;48.106;11.708;2023-05-10T04:55:01;0.70;;;0.60;;
1831;SDS011;1680;48.106;11.708;2023-05-10T04:57:28;1.27;;;0.70;;
1831;SDS011;1680;48.106;11.708;2023-05-10T04:59:55;1.07;;;0.80;;
1831;SDS011;1680;48.106;11.708;2023-05-10T05:02:22;1.33;;;0.70;;
1831;SDS011;1680;48.106;11.708;2023-05-10T05:04:50;2.50;;;0.80;;
1831;SDS011;1680;48.106;11.708;2023-05-10T05:07:18;1.23;;;0.70;;
1831;SDS011;1680;48.106;11.708;2023-05-10T05:09:45;2.00;;;0.77;;
1831;SDS011;1680;48.106;11.708;2023-05-10T05:12:12;0.90;;;0.70;;
1831;SDS011;1680;48.106;11.708;2023-05-10T05:14:40;0.80;;;0.80;;
1831;SDS011;1680;48.106;11.708;2023-05-10T05:17:07;1.30;;;0.70;;
1831;SDS011;1680;48.106;11.708;2023-05-10T05:19:34;0.60;;;0.60;;
1831;SDS011;1680;48.106;11.708;2023-05-10T05:22:02;1.20;;;0.70;;
1831;SDS011;1680;48.106;11.708;2023-05-10T05:24:32;0.70;;;0.70;;
1831;SDS011;1680;48.106;11.708;2023-05-10T05:27:03;1.87;;;0.80;;
1831;SDS011;1680;48.106;11.708;2023-05-10T05:29:30;0.90;;;0.70;;
1831;SDS011;1680;48.106;11.708;2023-05-10T05:31:58;1.37;;;0.60;;
1831;SDS011;1680;48.106;11.708;2023-05-10T05:34:25;2.10;;;1.00;;
1831;SDS011;1680;48.106;11.708;2023-05-10T05:36:52;0.60;;;0.60;;
1831;SDS011;1680;48.106;11.708;2023-05-10T05:39:19;1.10;;;1.00;;
1831;SDS011;1680;48.106;11.708;2023-05-10T05:41:48;0.93;;;0.80;;
1831;SDS011;1680;48.106;11.708;2023-05-10T05:44:16;0.80;;;0.70;;
1831;SDS011;1680;48.106;11.708;2023-05-10T05:46:43;0.73;;;0.73;;
1831;SDS011;1680;48.106;11.708;2023-05-10T05:49:10;1.20;;;1.10;;
1831;SDS011;1680;48.106;11.708;2023-05-10T05:51:37;1.97;;;1.00;;
1831;SDS011;1680;48.106;11.708;2023-05-10T05:54:04;1.00;;;0.90;;
1831;SDS011;1680;48.106;11.708;2023-05-10T05:56:31;4.23;;;3.83;;
1831;SDS011;1680;48.106;11.708;2023-05-10T05:58:59;1.20;;;1.00;;
1831;SDS011;1680;48.106;11.708;2023-05-10T06:01:27;1.67;;;0.90;;
1831;SDS011;1680;48.106;11.708;2023-05-10T06:03:54;1.30;;;1.00;;
1831;SDS011;1680;48.106;11.708;2023-05-10T06:06:21;2.00;;;0.90;;
1831;SDS011;1680;48.106;11.708;2023-05-10T06:08:48;1.30;;;1.20;;
1831;SDS011;1680;48.106;11.708;2023-05-10T06:11:15;1.20;;;1.10;;
1831;SDS011;1680;48.106;11.708;2023-05-10T06:13:42;1.43;;;0.90;;
1831;SDS011;1680;48.106;11.708;2023-05-10T06:16:11;2.07;;;1.00;;
1831;SDS011;1680;48.106;11.708;2023-05-10T06:18:38;1.00;;;0.83;;
1831;SDS011;1680;48.106;11.708;2023-05-10T06:21:05;1.10;;;0.90;;
1831;SDS011;1680;48.106;11.708;2023-05-10T06:23:32;0.87;;;0.83;;
1831;SDS011;1680;48.106;11.708;2023-05-10T06:26:01;0.80;;;0.80;;
1831;SDS011;1680;48.106;11.708;2023-05-10T06:28:28;1.00;;;0.90;;
1831;SDS011;1680;48.106;11.708;2023-05-10T06:30:57;0.80;;;0.70;;
1831;SDS011;1680;48.106;11.708;2023-05-10T06:33:25;2.40;;;1.10;;
1831;SDS011;1680;48.106;11.708;2023-05-10T06:35:53;2.60;;;1.00;;
1831;SDS011;1680;48.106;11.708;2023-05-10T06:38:20;1.20;;;1.10;;
1831;SDS011;1680;48.106;11.708;2023-05-10T06:40:47;3.27;;;1.00;;
1831;SDS011;1680;48.106;11.708;2023-05-10T06:43:14;1.20;;;1.10;;
1831;SDS011;1680;48.106;11.708;2023-05-10T06:45:41;1.80;;;1.13;;
1831;SDS011;1680;48.106;11.708;2023-05-10T06:48:09;1.37;;;1.20;;
1831;SDS011;1680;48.106;11.708;2023-05-10T06:50:37;1.10;;;0.97;;
1831;SDS011;1680;48.106;11.708;2023-05-10T06:53:04;1.30;;;1.20;;
1831;SDS011;1680;48.106;11.708;2023-05-10T06:55:32;1.20;;;1.10;;
1831;SDS011;1680;48.106;11.708;2023-05-10T06:57:59;1.13;;;1.00;;
1831;SDS011;1680;48.106;11.708;2023-05-10T07:00:27;1.23;;;1.03;;
1831;SDS011;1680;48.106;11.708;2023-05-10T07:02:54;1.20;;;1.10;;
1831;SDS011;1680;48.106;11.708;2023-05-10T07:05:21;2.03;;;1.10;;
1831;SDS011;1680;48.106;11.708;2023-05-10T07:07:50;3.63;;;1.60;;
1831;SDS011;1680;48.106;11.708;2023-05-10T07:10:17;1.60;;;1.50;;
1831;SDS011;1680;48.106;11.708;2023-05-10T07:12:45;2.50;;;1.20;;
1831;SDS011;1680;48.106;11.708;2023-05-10T07:15:12;3.73;;;1.00;;
1831;SDS011;1680;48.106;11.708;2023-05-10T07:17:40;1.30;;;1.20;;
1831;SDS011;1680;48.106;11.708;2023-05-10T07:20:08;1.37;;;1.27;;
1831;SDS011;1680;48.106;11.708;2023-05-10T07:22:35;1.50;;;1.40;;
1831;SDS011;1680;48.106;11.708;2023-05-10T07:25:04;1.63;;;1.30;;
1831;SDS011;1680;48.106;11.708;2023-05-10T07:27:32;1.30;;;1.20;;
1831;SDS011;1680;48.106;11.708;2023-05-10T07:29:59;1.40;;;1.30;;
1831;SDS011;1680;48.106;11.708;2023-05-10T07:32:27;1.40;;;1.30;;
1831;SDS011;1680;48.106;11.708;2023-05-10T07:34:54;1.60;;;1.50;;
1831;SDS011;1680;48.106;11.708;2023-05-10T07:37:22;1.90;;;1.30;;
1831;SDS011;1680;48.106;11.708;2023-05-10T07:39:49;1.33;;;1.23;;
1831;SDS011;1680;48.106;11.708;2023-05-10T07:42:17;5.17;;;1.30;;
1831;SDS011;1680;48.106;11.708;2023-05-10T07:44:44;1.50;;;1.40;;
1831;SDS011;1680;48.106;11.708;2023-05-10T07:47:12;1.50;;;1.37;;
1831;SDS011;1680;48.106;11.708;2023-05-10T07:49:39;2.23;;;1.83;;
1831;SDS011;1680;48.106;11.708;2023-05-10T07:52:06;2.40;;;1.60;;
1831;SDS011;1680;48.106;11.708;2023-05-10T07:54:33;1.50;;;1.40;;
1831;SDS011;1680;48.106;11.708;2023-05-10T07:57:00;1.50;;;1.40;;
1831;SDS011;1680;48.106;11.708;2023-05-10T07:59:29;1.90;;;1.80;;
1831;SDS011;1680;48.106;11.708;2023-05-10T08:01:57;1.90;;;1.50;;
1831;SDS011;1680;48.106;11.708;2023-05-10T08:04:24;1.40;;;1.23;;
1831;SDS011;1680;48.106;11.708;2023-05-10T08:06:51;2.60;;;1.40;;
1831;SDS011;1680;48.106;11.708;2023-05-10T08:09:18;1.60;;;1.47;;
1831;SDS011;1680;48.106;11.708;2023-05-10T08:11:48;1.40;;;1.30;;
1831;SDS011;1680;48.106;11.708;2023-05-10T08:14:16;1.40;;;1.20;;
1831;SDS011;1680;48.106;11.708;2023-05-10T08:16:44;1.43;;;1.33;;
1831;SDS011;1680;48.106;11.708;2023-05-10T08:19:11;1.70;;;1.37;;
1831;SDS011;1680;48.106;11.708;2023-05-10T08:21:39;2.07;;;1.50;;
1831;SDS011;1680;48.106;11.708;2023-05-10T08:24:07;1.53;;;1.43;;
1831;SDS011;1680;48.106;11.708;2023-05-10T08:26:34;1.50;;;1.40;;
1831;SDS011;1680;48.106;11.708;2023-05-10T08:29:02;2.40;;;1.40;;
1831;SDS011;1680;48.106;11.708;2023-05-10T08:31:29;3.07;;;1.30;;
1831;SDS011;1680;48.106;11.708;2023-05-10T08:33:58;1.50;;;1.40;;
1831;SDS011;1680;48.106;11.708;2023-05-10T08:36:25;4.20;;;1.50;;
1831;SDS011;1680;48.106;11.708;2023-05-10T08:38:53;1.17;;;1.07;;
1831;SDS011;1680;48.106;11.708;2023-05-10T08:41:21;1.47;;;1.00;;
1831;SDS011;1680;48.106;11.708;2023-05-10T08:43:51;1.63;;;0.90;;
1831;SDS011;1680;48.106;11.708;2023-05-10T08:46:20;1.60;;;1.30;;
1831;SDS011;1680;48.106;11.708;2023-05-10T08:48:48;1.30;;;1.20;;
1831;SDS011;1680;48.106;11.708;2023-05-10T08:51:18;1.20;;;1.10;;
1831;SDS011;1680;48.106;11.708;2023-05-10T08:53:48;5.23;;;1.17;;
1831;SDS011;1680;48.106;11.708;2023-05-10T08:56:16;1.23;;;1.13;;
1831;SDS011;1680;48.106;11.708;2023-05-10T08:58:45;1.20;;;1.00;;
1831;SDS011;1680;48.106;11.708;2023-05-10T09:01:14;1.43;;;1.20;;
1831;SDS011;1680;48.106;11.708;2023-05-10T09:03:43;1.57;;;1.10;;
1831;SDS011;1680;48.106;11.708;2023-05-10T09:06:13;1.90;;;0.90;;
1831;SDS011;1680;48.106;11.708;2023-05-10T09:08:42;1.60;;;0.90;;
1831;SDS011;1680;48.106;11.708;2023-05-10T09:11:10;1.80;;;1.20;;
1831;SDS011;1680;48.106;11.708;2023-05-10T09:13:38;1.90;;;1.10;;
1831;SDS011;1680;48.106;11.708;2023-05-10T09:16:05;1.07;;;0.97;;
1831;SDS011;1680;48.106;11.708;2023-05-10T09:18:33;1.30;;;1.20;;
1831;SDS011;1680;48.106;11.708;2023-05-10T09:21:00;1.27;;;1.10;;
1831;SDS011;1680;48.106;11.708;2023-05-10T09:23:27;1.63;;;1.10;;
1831;SDS011;1680;48.106;11.708;2023-05-10T09:26:04;1.87;;;1.13;;
1831;SDS011;1680;48.106;11.708;2023-05-10T09:28:32;2.33;;;1.43;;
1831;SDS011;1680;48.106;11.708;2023-05-10T09:30:59;3.90;;;1.20;;
1831;SDS011;1680;48.106;11.708;2023-05-10T09:33:27;1.73;;;1.17;;
1831;SDS011;1680;48.106;11.708;2023-05-10T09:35:54;1.87;;;1.33;;
1831;SDS011;1680;48.106;11.708;2023-05-10T09:38:21;3.20;;;1.70;;
1831;SDS011;1680;48.106;11.708;2023-05-10T09:40:52;1.50;;;1.27;;
1831;SDS011;1680;48.106;11.708;2023-05-10T09:43:22;2.20;;;1.30;;
1831;SDS011;1680;48.106;11.708;2023-05-10T09:45:49;3.07;;;1.03;;
1831;SDS011;1680;48.106;11.708;2023-05-10T09:48:16;3.60;;;1.17;;
1831;SDS011;1680;48.106;11.708;2023-05-10T09:50:43;1.30;;;1.20;;
1831;SDS011;1680;48.106;11.708;2023-05-10T09:53:10;1.27;;;1.00;;
1831;SDS011;1680;48.106;11.708;2023-05-10T09:55:42;1.93;;;1.50;;
1831;SDS011;1680;48.106;11.708;2023-05-10T09:58:11;1.77;;;1.30;;
1831;SDS011;1680;48.106;11.708;2023-05-10T10:00:40;2.60;;;2.00;;
1831;SDS011;1680;48.106;11.708;2023-05-10T10:03:12;6.87;;;2.90;;
1831;SDS011;1680;48.106;11.708;2023-05-10T10:05:40;3.20;;;1.50;;
1831;SDS011;1680;48.106;11.708;2023-05-10T10:08:08;5.20;;;2.30;;
1831;SDS011;1680;48.106;11.708;2023-05-10T10:10:36;1.30;;;1.20;;
1831;SDS011;1680;48.106;11.708;2023-05-10T10:13:03;4.37;;;1.63;;
1831;SDS011;1680;48.106;11.708;2023-05-10T10:15:31;2.20;;;2.00;;
1831;SDS011;1680;48.106;11.708;2023-05-10T10:18:01;2.20;;;1.97;;
1831;SDS011;1680;48.106;11.708;2023-05-10T10:20:29;1.53;;;1.43;;
1831;SDS011;1680;48.106;11.708;2023-05-10T10:22:57;1.27;;;1.10;;
1831;SDS011;1680;48.106;11.708;2023-05-10T10:25:24;2.53;;;1.30;;
1831;SDS011;1680;48.106;11.708;2023-05-10T10:27:58;1.40;;;1.10;;
1831;SDS011;1680;48.106;11.708;2023-05-10T10:30:35;1.40;;;1.30;;
1831;SDS011;1680;48.106;11.708;2023-05-10T10:33:12;3.20;;;2.47;;
1831;SDS011;1680;48.106;11.708;2023-05-10T10:35:57;3.30;;;2.70;;
1831;SDS011;1680;48.106;11.708;2023-05-10T10:38:35;1.40;;;1.30;;
1831;SDS011;1680;48.106;11.708;2023-05-10T10:41:09;2.30;;;1.90;;
1831;SDS011;1680;48.106;11.708;2023-05-10T10:43:37;3.93;;;3.20;;
1831;SDS011;1680;48.106;11.708;2023-05-10T10:46:11;11.17;;;10.10;;
1831;SDS011;1680;48.106;11.708;2023-05-10T10:48:41;13.60;;;12.27;;
1831;SDS011;1680;48.106;11.708;2023-05-10T10:51:13;12.93;;;8.30;;
1831;SDS011;1680;48.106;11.708;2023-05-10T10:53:41;6.20;;;4.70;;
1831;SDS011;1680;48.106;11.708;2023-05-10T10:56:10;4.80;;;3.83;;
1831;SDS011;1680;48.106;11.708;2023-05-10T10:58:40;2.97;;;2.20;;
1831;SDS011;1680;48.106;11.708;2023-05-10T11:01:11;2.17;;;1.30;;
1831;SDS011;1680;48.106;11.708;2023-05-10T11:03:54;1.40;;;1.30;;
1831;SDS011;1680;48.106;11.708;2023-05-10T11:06:43;1.50;;;1.40;;
1831;SDS011;1680;48.106;11.708;2023-05-10T11:09:11;1.70;;;1.33;;
1831;SDS011;1680;48.106;11.708;2023-05-10T11:11:48;2.13;;;1.20;;
1831;SDS011;1680;48.106;11.708;2023-05-10T11:14:17;2.17;;;1.30;;
1831;SDS011;1680;48.106;11.708;2023-05-10T11:16:47;1.73;;;1.50;;
1831;SDS011;1680;48.106;11.708;2023-05-10T11:19:16;1.67;;;1.57;;
1831;SDS011;1680;48.106;11.708;2023-05-10T11:21:45;1.13;;;1.00;;
1831;SDS011;1680;48.106;11.708;2023-05-10T11:24:14;1.40;;;1.30;;
1831;SDS011;1680;48.106;11.708;2023-05-10T11:26:42;1.50;;;1.30;;
1831;SDS011;1680;48.106;11.708;2023-05-10T11:29:09;2.23;;;1.20;;
1831;SDS011;1680;48.106;11.708;2023-05-10T11:31:41;3.33;;;1.60;;
1831;SDS011;1680;48.106;11.708;2023-05-10T11:34:10;2.00;;;1.40;;
1831;SDS011;1680;48.106;11.708;2023-05-10T11:36:40;2.63;;;2.00;;
1831;SDS011;1680;48.106;11.708;2023-05-10T11:39:08;2.07;;;1.70;;
1831;SDS011;1680;48.106;11.708;2023-05-10T11:41:36;4.50;;;2.40;;
1831;SDS011;1680;48.106;11.708;2023-05-10T11:44:03;2.63;;;1.73;;
1831;SDS011;1680;48.106;11.708;2023-05-10T11:46:31;2.83;;;1.70;;
1831;SDS011;1680;48.106;11.708;2023-05-10T11:48:58;2.07;;;1.50;;
1831;SDS011;1680;48.106;11.708;2023-05-10T11:51:29;1.80;;;1.43;;
1831;SDS011;1680;48.106;11.708;2023-05-10T11:54:01;5.50;;;1.57;;
1831;SDS011;1680;48.106;11.708;2023-05-10T11:56:33;1.30;;;1.20;;
1831;SDS011;1680;48.106;11.708;2023-05-10T11:59:00;5.00;;;3.43;;
1831;SDS011;1680;48.106;11.708;2023-05-10T12:01:27;4.00;;;2.07;;
1831;SDS011;1680;48.106;11.708;2023-05-10T12:03:56;2.40;;;1.90;;
1831;SDS011;1680;48.106;11.708;2023-05-10T12:06:26;6.60;;;2.33;;
1831;SDS011;1680;48.106;11.708;2023-05-10T12:08:54;3.40;;;2.20;;
1831;SDS011;1680;48.106;11.708;2023-05-10T12:11:25;6.97;;;2.60;;
1831;SDS011;1680;48.106;11.708;2023-05-10T12:13:53;4.93;;;2.70;;
1831;SDS011;1680;48.106;11.708;2023-05-10T12:16:21;7.73;;;2.93;;
1831;SDS011;1680;48.106;11.708;2023-05-10T12:18:50;10.50;;;3.27;;
1831;SDS011;1680;48.106;11.708;2023-05-10T12:21:18;4.20;;;2.80;;
1831;SDS011;1680;48.106;11.708;2023-05-10T12:23:48;5.10;;;2.40;;
1831;SDS011;1680;48.106;11.708;2023-05-10T12:26:16;10.23;;;2.90;;
1831;SDS011;1680;48.106;11.708;2023-05-10T12:28:45;5.03;;;2.93;;
1831;SDS011;1680;48.106;11.708;2023-05-10T12:31:12;4.83;;;2.90;;
1831;SDS011;1680;48.106;11.708;2023-05-10T12:33:40;2.80;;;2.30;;
1831;SDS011;1680;48.106;11.708;2023-05-10T12:36:08;4.80;;;2.50;;
1831;SDS011;1680;48.106;11.708;2023-05-10T12:38:36;6.10;;;2.10;;
1831;SDS011;1680;48.106;11.708;2023-05-10T12:41:07;1.90;;;1.70;;
1831;SDS011;1680;48.106;11.708;2023-05-10T12:43:36;1.90;;;1.70;;
1831;SDS011;1680;48.106;11.708;2023-05-10T12:46:06;1.70;;;1.57;;
1831;SDS011;1680;48.106;11.708;2023-05-10T12:48:34;4.67;;;1.80;;
1831;SDS011;1680;48.106;11.708;2023-05-10T12:51:02;3.50;;;1.70;;
1831;SDS011;1680;48.106;11.708;2023-05-10T12:53:30;3.47;;;1.90;;
1831;SDS011;1680;48.106;11.708;2023-05-10T12:55:58;1.83;;;1.70;;
1831;SDS011;1680;48.106;11.708;2023-05-10T12:58:25;2.30;;;1.60;;
1831;SDS011;1680;48.106;11.708;2023-05-10T13:00:53;3.13;;;2.00;;
1831;SDS011;1680;48.106;11.708;2023-05-10T13:03:22;2.00;;;1.80;;
1831;SDS011;1680;48.106;11.708;2023-05-10T13:05:50;2.63;;;1.60;;
1831;SDS011;1680;48.106;11.708;2023-05-10T13:08:17;3.87;;;1.50;;
1831;SDS011;1680;48.106;11.708;2023-05-10T13:10:44;1.67;;;1.57;;
1831;SDS011;1680;48.106;11.708;2023-05-10T13:13:11;4.90;;;2.03;;
1831;SDS011;1680;48.106;11.708;2023-05-10T13:15:38;1.87;;;1.77;;
1831;SDS011;1680;48.106;11.708;2023-05-10T13:18:05;1.83;;;1.37;;
1831;SDS011;1680;48.106;11.708;2023-05-10T13:20:34;1.50;;;1.40;;
1831;SDS011;1680;48.106;11.708;2023-05-10T13:23:01;2.33;;;2.13;;
1831;SDS011;1680;48.106;11.708;2023-05-10T13:25:28;1.93;;;1.60;;
1831;SDS011;1680;48.106;11.708;2023-05-10T13:27:56;2.63;;;1.80;;
1831;SDS011;1680;48.106;11.708;2023-05-10T13:30:23;1.70;;;1.60;;
1831;SDS011;1680;48.106;11.708;2023-05-10T13:32:50;1.40;;;1.30;;
1831;SDS011;1680;48.106;11.708;2023-05-10T13:35:17;2.97;;;1.73;;
1831;SDS011;1680;48.106;11.708;2023-05-10T13:37:46;2.30;;;1.63;;
1831;SDS011;1680;48.106;11.708;2023-05-10T13:40:13;2.43;;;1.50;;
1831;SDS011;1680;48.106;11.708;2023-05-10T13:42:41;3.33;;;1.80;;
1831;SDS011;1680;48.106;11.708;2023-05-10T13:45:09;2.50;;;1.70;;
1831;SDS011;1680;48.106;11.708;2023-05-10T13:47:38;1.90;;;1.73;;
1831;SDS011;1680;48.106;11.708;2023-05-10T13:50:05;2.50;;;2.30;;
1831;SDS011;1680;48.106;11.708;2023-05-10T13:52:33;4.47;;;1.80;;
1831;SDS011;1680;48.106;11.708;2023-05-10T13:55:02;1.73;;;1.40;;
1831;SDS011;1680;48.106;11.708;2023-05-10T13:57:30;2.60;;;1.70;;
1831;SDS011;1680;48.106;11.708;2023-05-10T13:59:59;1.60;;;1.50;;
1831;SDS011;1680;48.106;11.708;2023-05-10T14:02:26;2.17;;;1.97;;
1831;SDS011;1680;48.106;11.708;2023-05-10T14:04:53;3.00;;;2.10;;
1831;SDS011;1680;48.106;11.708;2023-05-10T14:07:21;1.77;;;1.40;;
1831;SDS011;1680;48.106;11.708;2023-05-10T14:09:48;1.50;;;1.40;;
1831;SDS011;1680;48.106;11.708;2023-05-10T14:12:16;2.17;;;1.80;;
1831;SDS011;1680;48.106;11.708;2023-05-10T14:14:44;1.93;;;1.83;;
1831;SDS011;1680;48.106;11.708;2023-05-10T14:17:11;2.13;;;1.73;;
1831;SDS011;1680;48.106;11.708;2023-05-10T14:19:38;2.03;;;1.50;;
1831;SDS011;1680;48.106;11.708;2023-05-10T14:22:05;1.80;;;1.40;;
1831;SDS011;1680;48.106;11.708;2023-05-10T14:24:32;1.67;;;1.57;;
1831;SDS011;1680;48.106;11.708;2023-05-10T14:27:00;2.20;;;1.67;;
1831;SDS011;1680;48.106;11.708;2023-05-10T14:29:28;2.30;;;1.90;;
1831;SDS011;1680;48.106;11.708;2023-05-10T14:31:55;2.40;;;1.40;;
1831;SDS011;1680;48.106;11.708;2023-05-10T14:34:23;1.80;;;1.37;;
1831;SDS011;1680;48.106;11.708;2023-05-10T14:36:50;3.83;;;1.33;;
1831;SDS011;1680;48.106;11.708;2023-05-10T14:39:17;1.20;;;1.10;;
1831;SDS011;1680;48.106;11.708;2023-05-10T14:41:44;2.43;;;1.23;;
1831;SDS011;1680;48.106;11.708;2023-05-10T14:44:13;1.30;;;1.10;;
1831;SDS011;1680;48.106;11.708;2023-05-10T14:46:42;1.30;;;1.20;;
1831;SDS011;1680;48.106;11.708;2023-05-10T14:49:09;2.20;;;1.30;;
1831;SDS011;1680;48.106;11.708;2023-05-10T14:51:36;1.63;;;1.40;;
1831;SDS011;1680;48.106;11.708;2023-05-10T14:54:04;1.20;;;1.10;;
1831;SDS011;1680;48.106;11.708;2023-05-10T14:56:31;1.63;;;1.53;;
1831;SDS011;1680;48.106;11.708;2023-05-10T14:58:58;1.40;;;1.30;;
1831;SDS011;1680;48.106;11.708;2023-05-10T15:01:26;1.40;;;1.30;;
1831;SDS011;1680;48.106;11.708;2023-05-10T15:03:54;3.03;;;1.40;;
1831;SDS011;1680;48.106;11.708;2023-05-10T15:06:22;1.40;;;1.30;;
1831;SDS011;1680;48.106;11.708;2023-05-10T15:08:51;2.53;;;1.23;;
1831;SDS011;1680;48.106;11.708;2023-05-10T15:11:18;3.37;;;1.47;;
1831;SDS011;1680;48.106;11.708;2023-05-10T15:13:45;1.70;;;1.43;;